Archival Weather

Central Park

Central Park, New York (KNYC)

Report from: Thursday, September 21, 2023 2:51 PM EDT
Current time: Sunday, February 25, 2024 4:35 PM EST

Current weather – Weather history – Daily summaries
Weather forecast

Temperature21.7°C (71.1°F)
Dew point8.3°C (46.9°F)
Winds 5 kts (2.6 m/s, 5.8 mph) Vrb
Winds variableWinds variable
Visibility10 mi. (16.1 km)
Clouds Sky clear
Altimeter30.28 in.Hg (1025 mB)
Relative humidity42 %
Density altitude566 ft. (172 m)
Sea-level pressure102.4 kPa (1024 mB, 30.25 in.Hg)
Remarks Fully automated report
System requires maintenance
Automated weather observing station with precipitation discriminator
Flight conditions Visual Meteorological Conditions
Raw dataKNYC 211851Z AUTO VRB05KT 10SM CLR 22/08 A3028 RMK AO2 SLP244 T02170083 $
An error has occurred. This application may no longer respond until reloaded. Reload 🗙